createdAt,value
2018-02-20T00:00:58.272Z,41.30
2018-02-20T00:03:27.239Z,44.23
2018-02-20T00:05:55.398Z,47.73
2018-02-20T00:08:23.606Z,40.63
2018-02-20T00:10:51.783Z,42.00
2018-02-20T00:13:19.953Z,41.93
2018-02-20T00:15:48.154Z,44.00
2018-02-20T00:18:17.098Z,46.13
2018-02-20T00:20:45.273Z,42.27
2018-02-20T00:23:13.439Z,49.70
2018-02-20T00:25:41.641Z,41.53
2018-02-20T00:28:09.807Z,42.63
2018-02-20T00:30:38.003Z,42.87
2018-02-20T00:33:06.956Z,43.53
2018-02-20T00:35:35.118Z,44.10
2018-02-20T00:38:03.288Z,46.27
2018-02-20T00:40:31.466Z,47.10
2018-02-20T00:42:59.649Z,42.87
2018-02-20T00:45:27.857Z,37.77
2018-02-20T00:47:56.030Z,47.70
2018-02-20T00:50:24.201Z,45.37
2018-02-20T00:52:52.370Z,45.13
2018-02-20T00:55:20.580Z,48.07
2018-02-20T00:57:49.517Z,51.83
2018-02-20T01:00:17.683Z,49.80
2018-02-20T01:02:45.873Z,39.80
2018-02-20T01:05:14.049Z,44.30
2018-02-20T01:07:42.228Z,45.10
2018-02-20T01:10:10.402Z,41.00
2018-02-20T01:12:38.592Z,46.03
2018-02-20T01:15:06.753Z,46.57
2018-02-20T01:17:34.921Z,49.30
2018-02-20T01:20:03.094Z,53.27
2018-02-20T01:22:31.301Z,48.73
2018-02-20T01:25:00.246Z,53.13
2018-02-20T01:27:28.420Z,45.37
2018-02-20T01:29:56.593Z,50.90
2018-02-20T01:32:24.754Z,44.50
2018-02-20T01:34:52.917Z,45.87
2018-02-20T01:37:21.072Z,47.40
2018-02-20T01:39:50.036Z,46.00
2018-02-20T01:42:18.201Z,48.57
2018-02-20T01:44:46.370Z,46.73
2018-02-20T01:47:14.590Z,53.43
2018-02-20T01:49:43.561Z,45.17
2018-02-20T01:52:11.767Z,47.17
2018-02-20T01:54:39.969Z,44.53
2018-02-20T01:57:08.130Z,47.30
2018-02-20T01:59:36.336Z,43.30
2018-02-20T02:02:04.554Z,48.13
2018-02-20T02:04:32.729Z,45.13
2018-02-20T02:07:00.894Z,43.83
2018-02-20T02:09:29.079Z,45.40
2018-02-20T02:11:57.302Z,46.90
2018-02-20T02:14:25.487Z,51.27
2018-02-20T02:16:53.651Z,43.60
2018-02-20T02:19:21.815Z,43.50
2018-02-20T02:21:50.018Z,39.37
2018-02-20T02:24:18.206Z,41.73
2018-02-20T02:26:46.387Z,37.73
2018-02-20T02:29:14.571Z,41.37
2018-02-20T02:31:42.782Z,47.37
2018-02-20T02:34:10.980Z,38.03
2018-02-20T02:36:39.150Z,38.50
2018-02-20T02:39:07.370Z,43.72
2018-02-20T02:41:35.549Z,37.50
2018-02-20T02:44:04.509Z,40.97
2018-02-20T02:46:32.712Z,44.60
2018-02-20T02:49:00.880Z,42.17
2018-02-20T02:51:29.086Z,36.80
2018-02-20T02:53:58.021Z,41.47
2018-02-20T02:56:26.209Z,42.70
2018-02-20T02:58:54.426Z,40.90
2018-02-20T03:01:22.618Z,39.10
2018-02-20T03:03:50.787Z,36.93
2018-02-20T03:06:18.991Z,40.47
2018-02-20T03:08:47.166Z,37.43
2018-02-20T03:11:15.337Z,35.97
2018-02-20T03:13:43.507Z,35.13
2018-02-20T03:16:11.682Z,31.90
2018-02-20T03:18:39.857Z,39.83
2018-02-20T03:21:08.048Z,32.90
2018-02-20T03:23:36.215Z,35.27
2018-02-20T03:26:04.383Z,32.47
2018-02-20T03:28:32.563Z,30.97
2018-02-20T03:31:00.740Z,31.77
2018-02-20T03:33:28.914Z,29.65
2018-02-20T03:35:57.114Z,32.57
2018-02-20T03:38:25.300Z,31.20
2018-02-20T03:40:54.247Z,37.93
2018-02-20T03:43:22.413Z,35.57
2018-02-20T03:45:50.577Z,36.33
2018-02-20T03:48:18.745Z,31.23
2018-02-20T03:50:46.939Z,28.93
2018-02-20T03:53:15.145Z,40.63
2018-02-20T03:55:43.319Z,37.05
2018-02-20T03:58:11.496Z,38.60
2018-02-20T04:00:39.677Z,38.15
2018-02-20T04:03:07.848Z,39.13
2018-02-20T04:05:36.023Z,32.20
2018-02-20T04:08:04.221Z,34.03
2018-02-20T04:10:33.165Z,37.60
2018-02-20T04:13:01.329Z,36.07
2018-02-20T04:15:29.504Z,34.23
2018-02-20T04:17:57.687Z,31.73
2018-02-20T04:20:25.867Z,34.75
2018-02-20T04:22:54.033Z,32.25
2018-02-20T04:25:22.219Z,30.00
2018-02-20T04:27:50.405Z,32.72
2018-02-20T04:30:18.603Z,33.27
2018-02-20T04:32:46.786Z,33.30
2018-02-20T04:35:15.730Z,31.63
2018-02-20T04:37:43.940Z,32.63
2018-02-20T04:40:12.098Z,35.77
2018-02-20T04:42:40.274Z,35.70
2018-02-20T04:45:08.476Z,26.30
2018-02-20T04:47:37.414Z,32.60
2018-02-20T04:50:05.590Z,32.58
2018-02-20T04:52:33.787Z,31.23
2018-02-20T04:55:01.987Z,29.03
2018-02-20T04:57:30.159Z,30.17
2018-02-20T04:59:58.410Z,32.72
2018-02-20T05:02:26.588Z,31.17
2018-02-20T05:04:54.776Z,28.20
2018-02-20T05:07:22.967Z,35.90
2018-02-20T05:09:51.930Z,34.97
2018-02-20T05:12:20.109Z,33.13
2018-02-20T05:14:48.295Z,32.60
2018-02-20T05:17:16.481Z,30.40
2018-02-20T05:19:44.651Z,30.63
2018-02-20T05:22:12.839Z,30.77
2018-02-20T05:24:41.798Z,35.00
2018-02-20T05:27:09.989Z,32.53
2018-02-20T05:29:38.163Z,29.03
2018-02-20T05:32:06.339Z,30.53
2018-02-20T05:34:34.509Z,30.20
2018-02-20T05:37:02.676Z,29.03
2018-02-20T05:39:30.837Z,30.60
2018-02-20T05:41:59.026Z,26.58
2018-02-20T05:44:27.225Z,29.80
2018-02-20T05:46:56.176Z,29.83
2018-02-20T05:49:24.370Z,26.52
2018-02-20T05:51:53.404Z,34.40
2018-02-20T05:54:22.368Z,28.83
2018-02-20T05:56:50.545Z,34.85
2018-02-20T05:59:18.809Z,29.67
2018-02-20T06:01:46.985Z,29.23
2018-02-20T06:04:15.184Z,30.87
2018-02-20T06:06:44.142Z,32.00
2018-02-20T06:09:12.325Z,26.00
2018-02-20T06:11:40.482Z,25.50
2018-02-20T06:14:08.700Z,28.20
2018-02-20T06:16:37.638Z,29.08
2018-02-20T06:19:05.843Z,27.08
2018-02-20T06:21:34.038Z,29.33
2018-02-20T06:24:02.978Z,28.63
2018-02-20T06:26:31.193Z,32.20
2018-02-20T06:28:59.381Z,26.17
2018-02-20T06:31:28.341Z,27.08
2018-02-20T06:33:56.632Z,36.93
2018-02-20T06:36:24.813Z,31.25
2018-02-20T06:38:52.982Z,30.98
2018-02-20T06:41:21.165Z,25.27
2018-02-20T06:43:49.326Z,31.63
2018-02-20T06:46:17.499Z,27.90
2018-02-20T06:48:45.697Z,27.55
2018-02-20T06:51:14.689Z,29.45
2018-02-20T06:53:43.638Z,28.87
2018-02-20T06:56:11.842Z,32.30
2018-02-20T06:58:40.972Z,29.83
2018-02-20T07:01:09.916Z,32.63
2018-02-20T07:03:38.076Z,31.60
2018-02-20T07:06:06.254Z,31.55
2018-02-20T07:08:34.432Z,29.43
2018-02-20T07:11:02.608Z,28.50
2018-02-20T07:13:30.778Z,30.33
2018-02-20T07:15:58.974Z,31.52
2018-02-20T07:18:27.185Z,28.10
2018-02-20T07:20:56.139Z,27.47
2018-02-20T07:23:25.296Z,26.20
2018-02-20T07:25:53.484Z,31.80
2018-02-20T07:28:21.682Z,30.30
2018-02-20T07:30:49.871Z,29.40
2018-02-20T07:33:18.046Z,29.05
2018-02-20T07:35:46.214Z,29.00
2018-02-20T07:38:14.422Z,22.70
2018-02-20T07:40:43.362Z,26.10
2018-02-20T07:43:11.567Z,28.03
2018-02-20T07:45:39.745Z,27.90
2018-02-20T07:48:07.930Z,25.40
2018-02-20T07:50:36.903Z,27.67
2018-02-20T07:53:05.103Z,26.57
2018-02-20T07:55:34.033Z,30.00
2018-02-20T07:58:02.203Z,23.13
2018-02-20T08:00:30.373Z,22.20
2018-02-20T08:02:58.538Z,26.00
2018-02-20T08:05:26.766Z,23.40
2018-02-20T08:07:54.930Z,27.07
2018-02-20T08:10:23.094Z,25.60
2018-02-20T08:12:51.322Z,25.60
2018-02-20T08:15:20.280Z,34.63
2018-02-20T08:17:48.457Z,24.53
2018-02-20T08:20:16.621Z,29.50
2018-02-20T08:22:44.805Z,22.20
2018-02-20T08:25:13.011Z,22.27
2018-02-20T08:27:41.977Z,26.93
2018-02-20T08:30:10.143Z,28.00
2018-02-20T08:32:38.318Z,24.53
2018-02-20T08:35:06.526Z,24.40
2018-02-20T08:37:35.524Z,25.93
2018-02-20T08:40:04.466Z,21.23
2018-02-20T08:42:32.732Z,26.33
2018-02-20T08:45:00.967Z,21.83
2018-02-20T08:47:29.164Z,29.00
2018-02-20T08:49:57.411Z,25.67
2018-02-20T08:52:26.382Z,21.70
2018-02-20T08:54:54.599Z,26.90
2018-02-20T08:57:23.540Z,24.90
2018-02-20T08:59:51.738Z,26.50
2018-02-20T09:02:19.928Z,20.17
2018-02-20T09:04:48.916Z,27.17
2018-02-20T09:07:17.903Z,25.00
2018-02-20T09:09:46.085Z,29.00
2018-02-20T09:12:15.074Z,23.40
2018-02-20T09:14:43.305Z,23.60
2018-02-20T09:17:11.526Z,22.97
2018-02-20T09:19:40.483Z,25.63
2018-02-20T09:22:08.763Z,27.40
2018-02-20T09:24:37.015Z,25.27
2018-02-20T09:27:05.219Z,21.20
2018-02-20T09:29:33.422Z,20.30
2018-02-20T09:32:01.662Z,21.07
2018-02-20T09:34:29.881Z,19.53
2018-02-20T09:36:58.860Z,23.47
2018-02-20T09:39:27.070Z,25.87
2018-02-20T09:41:55.264Z,24.23
2018-02-20T09:44:23.524Z,20.57
2018-02-20T09:46:51.716Z,23.50
2018-02-20T09:49:19.909Z,24.53
2018-02-20T09:51:48.913Z,22.73
2018-02-20T09:54:17.087Z,18.47
2018-02-20T09:56:45.349Z,20.20
2018-02-20T09:59:13.576Z,22.13
2018-02-20T10:01:42.574Z,19.03
2018-02-20T10:04:11.570Z,17.13
2018-02-20T10:06:40.539Z,33.83
2018-02-20T10:09:08.729Z,18.70
2018-02-20T10:11:37.682Z,22.27
2018-02-20T10:14:05.856Z,19.83
2018-02-20T10:16:34.035Z,21.33
2018-02-20T10:19:02.241Z,18.10
2018-02-20T10:21:31.244Z,18.80
2018-02-20T10:24:00.232Z,17.80
2018-02-20T10:26:29.240Z,18.20
2018-02-20T10:28:57.469Z,17.17
2018-02-20T10:31:25.647Z,16.67
2018-02-20T10:33:53.817Z,17.23
2018-02-20T10:36:21.984Z,18.60
2018-02-20T10:38:50.187Z,17.57
2018-02-20T10:41:18.351Z,18.53
2018-02-20T10:43:46.520Z,18.03
2018-02-20T10:46:14.724Z,17.67
2018-02-20T10:48:42.902Z,18.80
2018-02-20T10:51:11.854Z,19.17
2018-02-20T10:53:40.022Z,18.07
2018-02-20T10:56:08.790Z,18.23
2018-02-20T10:58:36.950Z,16.93
2018-02-20T11:01:05.114Z,17.90
2018-02-20T11:03:34.062Z,17.70
2018-02-20T11:06:02.362Z,19.93
2018-02-20T11:08:30.530Z,28.13
2018-02-20T11:10:58.708Z,25.27
2018-02-20T11:13:26.886Z,18.27
2018-02-20T11:15:55.070Z,18.93
2018-02-20T11:18:24.014Z,17.90
2018-02-20T11:20:52.185Z,18.13
2018-02-20T11:23:20.353Z,19.87
2018-02-20T11:25:48.541Z,16.87
2018-02-20T11:28:16.709Z,16.60
2018-02-20T11:30:44.865Z,18.50
2018-02-20T11:33:13.136Z,16.60
2018-02-20T11:35:46.063Z,16.90
2018-02-20T11:38:14.458Z,18.63
2018-02-20T11:40:42.631Z,17.13
2018-02-20T11:43:10.848Z,14.37
2018-02-20T11:45:41.791Z,15.80
2018-02-20T11:48:10.006Z,17.60
2018-02-20T11:50:38.221Z,16.43
2018-02-20T11:53:07.699Z,17.90
2018-02-20T11:55:36.112Z,17.03
2018-02-20T11:58:04.561Z,18.57
2018-02-20T12:00:34.945Z,17.53
2018-02-20T12:03:03.113Z,19.80
2018-02-20T12:05:31.851Z,20.60
2018-02-20T12:08:05.117Z,28.20
2018-02-20T12:10:33.491Z,20.70
2018-02-20T12:13:01.694Z,22.77
2018-02-20T12:15:30.111Z,27.30
2018-02-20T12:17:58.684Z,24.13
2018-02-20T12:20:31.306Z,21.50
2018-02-20T12:22:59.754Z,23.87
2018-02-20T12:25:28.686Z,21.57
2018-02-20T12:28:01.328Z,21.47
2018-02-20T12:30:30.006Z,21.37
2018-02-20T12:33:02.466Z,19.87
2018-02-20T12:35:30.683Z,23.60
2018-02-20T12:37:58.897Z,19.77
2018-02-20T12:40:27.872Z,20.57
2018-02-20T12:42:56.369Z,21.57
2018-02-20T12:45:29.664Z,19.70
2018-02-20T12:47:58.109Z,21.60
2018-02-20T12:50:27.046Z,21.07
2018-02-20T12:52:55.429Z,23.47
2018-02-20T12:55:24.267Z,21.80
2018-02-20T12:57:56.335Z,21.10
2018-02-20T13:00:24.500Z,20.67
2018-02-20T13:02:56.089Z,20.17
2018-02-20T13:05:25.249Z,22.57
2018-02-20T13:07:55.851Z,20.53
2018-02-20T13:10:26.259Z,18.70
2018-02-20T13:12:54.469Z,18.13
2018-02-20T13:15:23.398Z,31.63
2018-02-20T13:17:52.502Z,24.60
2018-02-20T13:20:25.891Z,26.30
2018-02-20T13:22:54.852Z,21.70
2018-02-20T13:25:23.812Z,18.53
2018-02-20T13:27:52.047Z,20.60
2018-02-20T13:30:20.254Z,23.20
2018-02-20T13:32:48.434Z,24.27
2018-02-20T13:35:16.672Z,26.17
2018-02-20T13:37:44.908Z,23.13
2018-02-20T13:40:13.908Z,24.40
2018-02-20T13:42:42.864Z,24.57
2018-02-20T13:45:11.087Z,27.90
2018-02-20T13:47:40.087Z,21.23
2018-02-20T13:50:08.365Z,26.20
2018-02-20T13:52:36.621Z,25.93
2018-02-20T13:55:05.593Z,24.30
2018-02-20T13:57:33.874Z,24.83
2018-02-20T14:00:02.085Z,27.80
2018-02-20T14:02:30.322Z,25.10
2018-02-20T14:04:58.562Z,22.60
2018-02-20T14:07:26.855Z,22.53
2018-02-20T14:09:55.082Z,23.23
2018-02-20T14:12:24.080Z,22.53
2018-02-20T14:14:53.096Z,21.33
2018-02-20T14:17:21.410Z,23.67
2018-02-20T14:19:50.559Z,27.10
2018-02-20T14:22:18.850Z,27.63
2018-02-20T14:24:47.070Z,28.27
2018-02-20T14:27:15.278Z,27.00
2018-02-20T14:29:44.277Z,33.40
2018-02-20T14:32:12.510Z,30.63
2018-02-20T14:34:40.716Z,26.70
2018-02-20T14:37:09.698Z,26.93
2018-02-20T14:39:38.665Z,33.10
2018-02-20T14:42:07.710Z,27.93
2018-02-20T14:44:36.032Z,30.77
2018-02-20T14:47:04.236Z,25.73
2018-02-20T14:49:32.437Z,28.50
2018-02-20T14:52:00.654Z,29.33
2018-02-20T14:54:28.867Z,28.67
2018-02-20T14:56:57.887Z,33.07
2018-02-20T14:59:26.084Z,27.53
2018-02-20T15:01:54.295Z,32.93
2018-02-20T15:04:22.529Z,25.83
2018-02-20T15:06:50.728Z,27.90
2018-02-20T15:09:19.770Z,26.27
2018-02-20T15:11:48.773Z,23.53
2018-02-20T15:14:16.966Z,25.20
2018-02-20T15:16:45.156Z,29.10
2018-02-20T15:19:13.389Z,26.33
2018-02-20T15:21:41.600Z,26.97
2018-02-20T15:24:09.808Z,24.70
2018-02-20T15:26:37.997Z,28.40
2018-02-20T15:29:06.203Z,25.90
2018-02-20T15:31:34.444Z,24.57
2018-02-20T15:34:02.637Z,23.10
2018-02-20T15:36:31.725Z,29.67
2018-02-20T15:39:00.745Z,26.17
2018-02-20T15:41:29.021Z,28.57
2018-02-20T15:43:57.215Z,37.27
2018-02-20T15:46:25.443Z,33.53
2018-02-20T15:48:54.434Z,25.93
2018-02-20T15:51:22.735Z,29.80
2018-02-20T15:53:50.935Z,30.50
2018-02-20T15:56:19.282Z,28.70
2018-02-20T15:58:48.411Z,32.37
2018-02-20T16:01:16.682Z,24.83
2018-02-20T16:03:44.917Z,24.10
2018-02-20T16:06:13.954Z,27.57
2018-02-20T16:08:42.144Z,23.00
2018-02-20T16:11:10.417Z,24.50
2018-02-20T16:13:38.776Z,26.77
2018-02-20T16:16:18.702Z,24.03
2018-02-20T16:18:47.698Z,25.07
2018-02-20T16:21:18.233Z,24.70
2018-02-20T16:23:47.374Z,26.27
2018-02-20T16:26:15.663Z,27.20
2018-02-20T16:28:43.913Z,23.93
2018-02-20T16:31:12.155Z,23.10
2018-02-20T16:33:41.170Z,27.10
2018-02-20T16:36:09.543Z,19.63
2018-02-20T16:38:37.770Z,21.47
2018-02-20T16:41:06.190Z,24.93
2018-02-20T16:43:34.631Z,25.30
2018-02-20T16:46:03.109Z,24.50
2018-02-20T16:48:31.524Z,24.43
2018-02-20T16:51:00.530Z,23.97
2018-02-20T16:53:30.870Z,22.63
2018-02-20T16:55:59.231Z,28.17
2018-02-20T16:58:27.524Z,25.80
2018-02-20T17:00:55.727Z,24.77
2018-02-20T17:03:23.983Z,27.50
2018-02-20T17:05:52.265Z,27.13
2018-02-20T17:08:20.514Z,24.90
2018-02-20T17:10:49.506Z,28.17
2018-02-20T17:13:18.504Z,27.10
2018-02-20T17:15:46.718Z,28.90
2018-02-20T17:18:14.925Z,48.60
2018-02-20T17:20:43.992Z,26.37
2018-02-20T17:23:12.224Z,25.60
2018-02-20T17:25:40.562Z,23.60
2018-02-20T17:28:08.841Z,31.13
2018-02-20T17:30:37.102Z,29.43
2018-02-20T17:33:05.301Z,29.00
2018-02-20T17:35:33.569Z,27.33
2018-02-20T17:38:01.756Z,26.57
2018-02-20T17:40:30.083Z,27.87
2018-02-20T17:42:58.420Z,27.73
2018-02-20T17:45:27.454Z,27.43
2018-02-20T17:47:55.690Z,32.80
2018-02-20T17:50:25.739Z,31.37
2018-02-20T17:52:53.957Z,31.10
2018-02-20T17:55:22.338Z,32.07
2018-02-20T17:57:50.677Z,27.90
2018-02-20T18:00:18.902Z,34.00
2018-02-20T18:02:47.157Z,33.87
2018-02-20T18:05:15.555Z,31.07
2018-02-20T18:07:43.836Z,27.77
2018-02-20T18:10:12.149Z,29.30
2018-02-20T18:12:41.274Z,30.63
2018-02-20T18:15:09.612Z,25.50
2018-02-20T18:17:38.675Z,29.90
2018-02-20T18:20:07.494Z,25.37
2018-02-20T18:22:36.648Z,30.40
2018-02-20T18:25:04.934Z,29.10
2018-02-20T19:54:36.214Z,22.13
2018-02-20T19:57:05.555Z,23.70
2018-02-20T19:59:33.938Z,27.60
2018-02-20T20:02:02.210Z,26.77
2018-02-20T20:04:30.658Z,34.00
2018-02-20T20:06:59.887Z,33.07
2018-02-20T20:09:28.175Z,28.47
2018-02-20T20:11:56.533Z,28.23
2018-02-20T20:14:24.873Z,28.83
2018-02-20T20:16:53.203Z,27.93
2018-02-20T20:19:22.096Z,31.73
2018-02-20T20:21:51.130Z,26.60
2018-02-20T20:24:21.130Z,26.60
2018-02-20T20:26:49.450Z,27.90
2018-02-20T20:29:18.551Z,31.50
2018-02-20T20:31:47.611Z,30.63
2018-02-20T20:34:15.853Z,30.73
2018-02-20T20:36:44.070Z,29.43
2018-02-20T20:39:12.383Z,27.50
2018-02-20T20:41:41.927Z,31.37
2018-02-20T20:44:10.190Z,32.70
2018-02-20T20:46:38.428Z,33.50
2018-02-20T20:49:07.426Z,30.03
2018-02-20T20:51:36.446Z,31.07
2018-02-20T20:54:04.826Z,32.10
2018-02-20T20:56:33.109Z,30.23
2018-02-20T20:59:01.468Z,34.37
2018-02-20T21:01:29.791Z,35.77
2018-02-20T21:03:58.060Z,43.37
2018-02-20T21:06:26.525Z,43.63
2018-02-20T21:08:54.800Z,43.50
2018-02-20T21:11:23.079Z,48.50
2018-02-20T21:13:51.507Z,42.23
2018-02-20T21:16:19.804Z,36.13
2018-02-20T21:18:49.002Z,40.20
2018-02-20T21:21:18.074Z,38.60
2018-02-20T21:23:46.326Z,39.90
2018-02-20T21:26:14.538Z,37.60
2018-02-20T21:28:43.702Z,41.03
2018-02-20T21:31:11.869Z,42.80
2018-02-20T21:33:40.618Z,42.80
2018-02-20T21:36:27.354Z,42.33
2018-02-20T21:38:55.601Z,46.27
2018-02-20T21:41:24.576Z,44.07
2018-02-20T21:43:53.543Z,43.40
2018-02-20T21:46:21.763Z,36.00
2018-02-20T21:48:50.736Z,36.10
2018-02-20T21:51:18.913Z,38.10
2018-02-20T21:53:47.896Z,33.90
2018-02-20T21:56:16.113Z,39.43
2018-02-20T21:58:44.353Z,58.37
2018-02-20T22:01:12.605Z,43.80
2018-02-20T22:03:40.811Z,36.23
2018-02-20T22:06:09.811Z,28.83
2018-02-20T22:08:38.808Z,31.63
2018-02-20T22:11:07.761Z,27.97
2018-02-20T22:13:35.965Z,29.17
2018-02-20T22:16:04.983Z,25.80
2018-02-20T22:18:33.168Z,23.67
2018-02-20T22:21:01.415Z,30.70
2018-02-20T22:23:31.448Z,26.63
2018-02-20T22:25:59.631Z,34.37
2018-02-20T22:28:27.892Z,22.97
2018-02-20T22:30:56.847Z,19.67
2018-02-20T22:33:25.071Z,25.07
2018-02-20T22:35:53.247Z,19.80
2018-02-20T22:38:21.464Z,17.47
2018-02-20T22:40:49.644Z,22.40
2018-02-20T22:43:17.893Z,24.27
2018-02-20T22:45:46.155Z,26.20
2018-02-20T22:48:14.333Z,23.87
2018-02-20T22:50:42.502Z,25.97
2018-02-20T22:53:10.684Z,30.83
2018-02-20T22:55:38.950Z,31.87
2018-02-20T22:58:07.154Z,27.97
2018-02-20T23:00:35.343Z,27.20
2018-02-20T23:46:43.289Z,33.80
2018-02-20T23:49:12.257Z,31.37
2018-02-20T23:51:40.525Z,29.25
2018-02-20T23:54:08.733Z,29.23
2018-02-20T23:56:37.696Z,32.73
2018-02-20T23:59:05.883Z,29.90
